Time;durP1;ratioP1;P1;durP2;ratioP2;P2;SDS_P1;SDS_P2;PMS_P1;PMS_P2;Temp;Humidity;BMP_temperature;BMP_pressure;BME280_temperature;BME280_humidity;BME280_pressure;Samples;Min_cycle;Max_cycle;Signal;HPM_P1;HPM_P2
2022/11/02 00:00:33;;;;;;;28.10;18.90;;;;;;;6.82;62.62;100374.23;1650193;83;20958;-62
2022/11/02 00:03:00;;;;;;;30.93;18.83;;;;;;;6.84;62.55;100378.05;1687433;83;21055;-63
2022/11/02 00:05:26;;;;;;;28.75;18.50;;;;;;;6.85;62.43;100373.56;1683968;83;21175;-61
2022/11/02 00:07:54;;;;;;;29.82;18.05;;;;;;;6.87;62.23;100364.95;1678027;84;21494;-64
2022/11/02 00:10:22;;;;;;;26.17;16.53;;;;;;;6.90;62.08;100357.51;1675486;83;21118;-63
2022/11/02 00:12:51;;;;;;;27.27;17.27;;;;;;;6.91;61.77;100359.66;1673212;83;20984;-63
2022/11/02 00:15:18;;;;;;;24.47;15.43;;;;;;;6.93;61.62;100358.52;1678230;83;21024;-63
2022/11/02 00:17:48;;;;;;;27.00;16.70;;;;;;;6.95;61.52;100353.03;1681755;83;21006;-62
2022/11/02 00:20:17;;;;;;;27.33;17.80;;;;;;;6.98;61.45;100357.51;1694561;83;20994;-63
2022/11/02 00:22:47;;;;;;;31.03;16.90;;;;;;;7.01;61.42;100351.07;1694736;83;21030;-63
2022/11/02 00:25:18;;;;;;;29.67;17.23;;;;;;;7.03;61.30;100350.41;1695009;83;21002;-64
2022/11/02 00:27:44;;;;;;;27.53;18.30;;;;;;;7.02;61.22;100351.38;1697866;83;21136;-63
2022/11/02 00:30:10;;;;;;;;;;;;;;;6.99;61.16;100349.08;1689254;83;21559;-62
2022/11/02 00:32:36;;;;;;;29.20;17.70;;;;;;;6.94;61.14;100343.44;1689452;83;20153;-63
2022/11/02 00:35:04;;;;;;;27.40;17.87;;;;;;;6.88;61.30;100344.11;1703355;82;20985;-64
2022/11/02 00:37:30;;;;;;;29.43;17.67;;;;;;;6.85;61.33;100339.13;1723064;82;21217;-68
2022/11/02 00:39:57;;;;;;;26.63;15.83;;;;;;;6.82;61.41;100334.48;1731879;82;21029;-64
2022/11/02 00:42:23;;;;;;;27.75;17.60;;;;;;;6.79;61.51;100336.63;1683827;83;21006;-62
2022/11/02 00:44:50;;;;;;;;;;;;;;;6.76;61.76;100339.59;1699351;83;21475;-63
2022/11/02 00:47:16;;;;;;;29.23;17.20;;;;;;;6.74;61.92;100337.61;1688579;83;20233;-63
2022/11/02 00:49:45;;;;;;;26.83;16.40;;;;;;;6.66;62.53;100336.28;1691555;83;21532;-62
2022/11/02 00:52:11;;;;;;;28.23;17.33;;;;;;;6.60;63.02;100333.78;1692733;82;21052;-62
2022/11/02 00:54:39;;;;;;;25.80;17.53;;;;;;;6.56;63.30;100337.75;1708291;83;21692;-63
2022/11/02 00:57:05;;;;;;;27.50;17.87;;;;;;;6.50;63.44;100333.08;1717828;83;21014;-63
2022/11/02 00:59:32;;;;;;;27.03;17.57;;;;;;;6.42;63.62;100333.42;1738585;82;21046;-64
2022/11/02 01:05:29;;;;;;;27.97;17.33;;;;;;;6.33;63.87;100333.53;1614549;81;90026;-86
2022/11/02 01:07:57;;;;;;;27.60;18.50;;;;;;;5.95;64.16;100284.97;1579407;89;22035;-85
2022/11/02 01:10:25;;;;;;;30.45;18.52;;;;;;;6.29;64.38;100337.02;1609151;86;21747;-85
2022/11/02 01:12:52;;;;;;;30.63;18.67;;;;;;;6.26;64.23;100339.98;1598149;88;21069;-84
2022/11/02 01:15:18;;;;;;;30.20;18.37;;;;;;;6.27;64.07;100349.56;1683335;81;85865;-64
2022/11/02 01:17:44;;;;;;;29.48;19.35;;;;;;;6.27;64.24;100338.16;1723898;82;21030;-61
2022/11/02 01:20:11;;;;;;;22.60;16.37;;;;;;;6.27;64.14;100344.27;1715222;82;21103;-62
2022/11/02 01:22:38;;;;;;;32.37;18.70;;;;;;;6.30;64.42;100337.84;1717162;83;21048;-62
2022/11/02 01:25:05;;;;;;;26.30;17.50;;;;;;;6.28;64.68;100336.67;1710312;82;21069;-65
2022/11/02 01:27:31;;;;;;;29.37;18.20;;;;;;;6.24;64.87;100336.16;1713586;82;21077;-64
2022/11/02 01:29:58;;;;;;;26.00;17.32;;;;;;;6.21;64.75;100330.36;1712668;82;21044;-62
2022/11/02 01:32:24;;;;;;;26.30;17.45;;;;;;;6.16;64.78;100333.97;1718563;82;21009;-64
2022/11/02 01:34:51;;;;;;;26.53;18.30;;;;;;;6.14;65.03;100325.36;1705393;82;21039;-61
2022/11/02 01:37:17;;;;;;;29.75;17.23;;;;;;;6.15;65.07;100337.12;1725567;82;21043;-63
2022/11/02 01:39:44;;;;;;;;;;;;;;;6.17;65.07;100330.34;1720259;82;21467;-63
2022/11/02 01:42:22;;;;;;;25.63;16.33;;;;;;;6.18;64.89;100328.87;1707126;82;20121;-63
2022/11/02 01:44:49;;;;;;;24.37;16.93;;;;;;;6.15;64.82;100330.50;1708702;82;21059;-63
2022/11/02 01:47:37;;;;;;;26.07;17.52;;;;;;;6.17;64.58;100329.03;1717532;82;21069;-61
2022/11/02 01:50:21;;;;;;;29.27;18.87;;;;;;;6.14;64.33;100324.89;1693178;83;21060;-63
2022/11/02 01:52:47;;;;;;;23.43;16.40;;;;;;;6.10;64.34;100324.84;1697125;82;21049;-63
2022/11/02 01:55:23;;;;;;;23.43;16.97;;;;;;;6.09;64.18;100319.74;1721490;82;21010;-63
2022/11/02 01:58:04;;;;;;;21.77;16.07;;;;;;;6.07;63.93;100307.17;1724239;81;20992;-61
2022/11/02 02:00:30;;;;;;;22.57;15.00;;;;;;;6.00;63.92;100308.28;1678673;84;21097;-62
2022/11/02 02:03:20;;;;;;;28.90;18.30;;;;;;;5.88;64.25;100310.36;1732098;82;21088;-62
2022/11/02 02:05:59;;;;;;;26.27;16.55;;;;;;;5.79;64.46;100314.77;1701801;83;21509;-61
2022/11/02 02:08:27;;;;;;;26.40;18.20;;;;;;;5.77;64.79;100309.31;1710914;83;21038;-62
2022/11/02 02:10:58;;;;;;;26.97;17.37;;;;;;;5.75;65.03;100308.64;1704552;82;21018;-61
2022/11/02 02:13:27;;;;;;;30.60;16.67;;;;;;;5.72;65.34;100315.06;1716167;82;21070;-62
2022/11/02 02:16:17;;;;;;;23.83;15.90;;;;;;;5.66;65.54;100311.23;1710742;82;21053;-62
2022/11/02 02:18:53;;;;;;;28.60;17.57;;;;;;;5.61;66.09;100312.69;1705043;82;21499;-61
2022/11/02 02:21:52;;;;;;;24.50;16.43;;;;;;;5.52;66.35;100314.47;1705163;83;21511;-63
2022/11/02 02:24:59;;;;;;;24.43;17.77;;;;;;;5.47;66.61;100303.52;1733374;82;21057;-61
2022/11/02 02:28:01;;;;;;;25.80;16.77;;;;;;;5.46;66.68;100301.85;1706240;82;21571;-62
2022/11/02 02:30:33;;;;;;;26.17;14.90;;;;;;;5.49;66.46;100292.30;1697536;83;20996;-61
2022/11/02 02:33:13;;;;;;;28.43;16.60;;;;;;;5.52;66.21;100292.47;1707797;83;21102;-62
2022/11/02 02:36:06;;;;;;;25.83;16.97;;;;;;;5.54;66.11;100287.38;1706284;83;21058;-62
2022/11/02 02:38:54;;;;;;;26.63;15.73;;;;;;;5.56;66.02;100286.73;1696221;83;21010;-63
2022/11/02 02:41:43;;;;;;;23.85;16.70;;;;;;;5.55;66.12;100289.02;1710800;83;21098;-61
2022/11/02 02:44:19;;;;;;;25.73;15.50;;;;;;;5.51;66.89;100285.03;1705412;83;21036;-61
2022/11/02 02:46:56;;;;;;;26.25;16.85;;;;;;;5.40;66.83;100289.27;1709046;83;21058;-63
2022/11/02 02:49:37;;;;;;;23.40;16.47;;;;;;;5.29;67.23;100282.41;1705833;83;21029;-62
2022/11/02 02:52:05;;;;;;;26.17;17.10;;;;;;;5.22;67.54;100283.55;1706851;83;21510;-60
2022/11/02 02:54:38;;;;;;;29.33;18.43;;;;;;;5.18;67.73;100290.59;1715174;83;21561;-61
2022/11/02 02:57:19;;;;;;;31.20;17.57;;;;;;;5.18;67.76;100286.63;1713255;83;20979;-61
2022/11/02 02:59:48;;;;;;;29.97;17.17;;;;;;;5.19;67.81;100281.20;1705845;83;21023;-62
2022/11/02 03:02:29;;;;;;;24.03;16.53;;;;;;;5.23;67.65;100279.08;1704930;83;21072;-61
2022/11/02 03:04:56;;;;;;;29.47;16.30;;;;;;;5.24;67.45;100281.58;1706438;83;20952;-61
2022/11/02 03:07:30;;;;;;;30.67;18.50;;;;;;;5.22;67.23;100279.58;1704582;83;21116;-67
2022/11/02 03:10:11;;;;;;;26.20;17.70;;;;;;;5.22;67.13;100278.27;1704503;83;20958;-62
2022/11/02 03:12:56;;;;;;;28.33;18.33;;;;;;;5.22;66.97;100282.22;1704120;83;21016;-61
2022/11/02 03:15:52;;;;;;;25.80;16.47;;;;;;;5.21;66.91;100287.66;1705404;83;21088;-64
2022/11/02 03:19:01;;;;;;;25.43;16.53;;;;;;;5.22;66.93;100293.30;1706203;82;20950;-61
2022/11/02 03:21:41;;;;;;;24.85;16.07;;;;;;;5.19;66.90;100287.80;1706627;83;21037;-61
2022/11/02 03:24:19;;;;;;;25.67;17.57;;;;;;;5.16;67.02;100295.21;1703902;83;21542;-61
2022/11/02 03:27:01;;;;;;;24.27;16.03;;;;;;;5.12;67.24;100290.72;1682280;83;20974;-61
2022/11/02 03:29:48;;;;;;;29.13;17.53;;;;;;;5.09;67.42;100295.02;1704223;83;21069;-61
2022/11/02 03:32:44;;;;;;;25.48;15.95;;;;;;;5.10;67.62;100300.62;1706305;83;21005;-61
2022/11/02 03:35:25;;;;;;;27.37;15.73;;;;;;;5.08;67.78;100288.05;1704927;83;21081;-63
2022/11/02 03:38:00;;;;;;;28.37;16.20;;;;;;;5.09;67.78;100286.27;1667647;83;21025;-62
2022/11/02 03:40:32;;;;;;;25.43;15.80;;;;;;;5.09;67.68;100281.80;1704291;83;21002;-60
2022/11/02 03:43:01;;;;;;;26.20;15.97;;;;;;;5.11;67.60;100290.40;1705682;83;21024;-62
2022/11/02 03:45:35;;;;;;;26.00;16.10;;;;;;;5.12;67.53;100290.72;1703806;83;21104;-64
2022/11/02 03:48:07;;;;;;;27.90;15.87;;;;;;;5.10;67.52;100279.48;1705551;83;21026;-61
2022/11/02 03:50:37;;;;;;;29.77;16.67;;;;;;;5.08;67.39;100278.81;1709348;82;21022;-64
2022/11/02 03:53:29;;;;;;;28.27;15.67;;;;;;;5.07;67.33;100267.92;1707479;83;21587;-63
2022/11/02 03:56:03;;;;;;;26.17;16.80;;;;;;;5.04;67.30;100262.94;1707042;83;20978;-63
2022/11/02 03:58:30;;;;;;;21.50;15.90;;;;;;;5.02;67.44;100276.79;1678541;84;20991;-62
2022/11/02 04:01:02;;;;;;;21.53;15.00;;;;;;;4.96;67.56;100271.63;1699821;83;21011;-62
2022/11/02 04:03:31;;;;;;;28.27;16.13;;;;;;;4.92;67.81;100273.42;1694112;83;21150;-62
2022/11/02 04:05:57;;;;;;;21.60;14.67;;;;;;;4.89;68.23;100274.54;1704663;82;21482;-62
2022/11/02 04:08:33;;;;;;;21.03;14.80;;;;;;;4.89;68.53;100275.86;1702396;83;21609;-62
2022/11/02 04:16:32;;;;;;;26.60;15.13;;;;;;;4.79;69.19;100258.78;1705794;83;21025;-68
2022/11/02 04:27:17;;;;;;;22.33;15.63;;;;;;;4.57;70.85;100257.93;1683624;83;21017;-61
2022/11/02 04:29:44;;;;;;;26.47;16.37;;;;;;;4.61;71.15;100257.96;1718712;83;21053;-64
2022/11/02 04:32:11;;;;;;;26.10;15.58;;;;;;;4.65;71.17;100254.88;1688831;83;21048;-63
2022/11/02 04:34:37;;;;;;;23.90;15.93;;;;;;;4.70;71.41;100252.27;1720251;82;21031;-61
2022/11/02 04:38:39;;;;;;;25.40;16.60;;;;;;;4.75;71.05;100242.09;1723440;82;21536;-64
2022/11/02 04:39:33;;;;;;;28.73;16.70;;;;;;;4.78;70.75;100241.27;1723389;83;21076;-62
2022/11/02 04:42:00;;;;;;;21.95;15.40;;;;;;;4.84;70.48;100245.11;1724095;81;21041;-62
2022/11/02 04:44:30;;;;;;;24.10;16.33;;;;;;;4.90;70.38;100245.84;1722148;82;21027;-63
2022/11/02 04:47:08;;;;;;;23.93;16.23;;;;;;;4.93;70.35;100232.80;1717022;82;21115;-67
2022/11/02 04:49:35;;;;;;;26.20;16.27;;;;;;;4.92;70.55;100225.88;1725007;82;21059;-63
2022/11/02 04:52:03;;;;;;;24.00;15.13;;;;;;;4.91;70.59;100212.32;1722897;82;21042;-62
2022/11/02 04:54:29;;;;;;;31.70;18.23;;;;;;;4.84;71.00;100215.59;1730188;82;21478;-63
2022/11/02 04:56:57;;;;;;;33.07;19.60;;;;;;;4.77;71.31;100222.46;1722720;82;21100;-62
2022/11/02 04:59:24;;;;;;;28.92;18.45;;;;;;;4.74;71.41;100229.36;1689379;82;21005;-64
2022/11/02 05:01:51;;;;;;;26.53;17.17;;;;;;;4.76;71.71;100230.53;1734513;82;21011;-63
2022/11/02 05:04:17;;;;;;;25.30;16.93;;;;;;;4.40;71.96;100163.27;1722605;82;21071;-61
2022/11/02 05:06:44;;;;;;;28.40;19.80;;;;;;;4.83;72.22;100223.16;1682424;85;21060;-66
2022/11/02 05:09:10;;;;;;;31.50;19.45;;;;;;;4.87;72.16;100226.33;1721013;82;20990;-66
2022/11/02 05:11:40;;;;;;;31.73;22.67;;;;;;;4.90;72.07;100225.17;1724156;82;20998;-62
2022/11/02 05:14:07;;;;;;;34.77;24.23;;;;;;;4.95;72.24;100222.91;1724527;83;20978;-61
2022/11/02 05:16:34;;;;;;;34.40;22.60;;;;;;;4.95;72.24;100226.38;1724961;82;21069;-61
2022/11/02 05:19:01;;;;;;;38.67;25.00;;;;;;;4.97;73.04;100217.83;1725299;83;21040;-62
2022/11/02 05:21:28;;;;;;;42.23;26.80;;;;;;;4.98;73.14;100210.22;1722763;82;21492;-63
2022/11/02 05:23:55;;;;;;;37.60;25.33;;;;;;;4.98;72.54;100213.36;1722757;82;21135;-64
2022/11/02 05:26:21;;;;;;;45.88;24.92;;;;;;;4.99;72.73;100209.72;1722378;83;21037;-62
2022/11/02 05:28:50;;;;;;;37.60;25.50;;;;;;;5.04;73.90;100208.27;1725057;82;21040;-63
2022/11/02 05:31:16;;;;;;;46.97;26.67;;;;;;;5.09;73.08;100210.47;1725154;82;21151;-61
2022/11/02 05:33:43;;;;;;;45.12;27.10;;;;;;;5.12;72.92;100211.95;1724976;82;21075;-62
2022/11/02 05:36:11;;;;;;;43.90;27.83;;;;;;;5.13;73.20;100213.13;1725321;82;21070;-62
2022/11/02 05:38:40;;;;;;;40.60;26.80;;;;;;;5.18;74.16;100214.82;1723811;82;20987;-62
2022/11/02 05:41:08;;;;;;;39.43;26.60;;;;;;;5.25;73.31;100209.72;1714429;83;21156;-68
2022/11/02 05:43:36;;;;;;;39.87;26.63;;;;;;;5.30;72.74;100206.63;1699909;83;21018;-70
2022/11/02 05:46:04;;;;;;;41.77;26.47;;;;;;;5.35;73.00;100206.95;1710346;82;21052;-66
2022/11/02 05:48:32;;;;;;;43.73;28.50;;;;;;;5.42;73.90;100210.63;1706342;82;21132;-65
2022/11/02 05:51:02;;;;;;;49.93;24.87;;;;;;;5.56;74.11;100212.69;1712534;83;20947;-65
2022/11/02 05:53:31;;;;;;;41.47;26.67;;;;;;;5.72;73.29;100205.30;1708895;83;21045;-66
2022/11/02 05:55:58;;;;;;;41.10;26.17;;;;;;;5.86;72.69;100214.46;1710144;83;20978;-64
2022/11/02 05:58:25;;;;;;;54.33;26.83;;;;;;;6.01;72.48;100218.67;1707908;83;21026;-62
2022/11/02 06:00:52;;;;;;;52.43;26.87;;;;;;;6.14;71.75;100216.86;1712184;83;21506;-62
2022/11/02 06:03:20;;;;;;;61.45;28.75;;;;;;;6.22;70.75;100218.22;1701945;83;21548;-62
2022/11/02 06:05:46;;;;;;;65.93;28.67;;;;;;;6.31;71.14;100225.18;1711923;83;20981;-65
2022/11/02 06:08:12;;;;;;;56.53;26.97;;;;;;;6.45;70.63;100218.41;1713276;83;21060;-65
2022/11/02 06:10:41;;;;;;;56.58;26.20;;;;;;;6.59;70.29;100226.17;1678165;83;21064;-63
2022/11/02 06:13:06;;;;;;;57.30;26.67;;;;;;;6.73;69.67;100230.01;1712340;83;21487;-63
2022/11/02 06:15:34;;;;;;;49.77;26.13;;;;;;;6.85;69.27;100228.66;1709180;83;21220;-67
2022/11/02 06:18:00;;;;;;;65.20;27.83;;;;;;;6.95;68.88;100231.98;1710519;83;21475;-64
2022/11/02 06:20:28;;;;;;;50.37;26.97;;;;;;;7.07;69.01;100233.78;1720055;82;21671;-63
2022/11/02 06:22:54;;;;;;;61.63;27.37;;;;;;;7.27;68.33;100229.42;1704424;83;21085;-64
2022/11/02 06:25:20;;;;;;;62.55;28.07;;;;;;;7.27;68.33;100229.42;1703422;83;21259;-68
2022/11/02 06:27:55;;;;;;;60.10;28.52;;;;;;;7.39;67.84;100239.51;1704873;82;21084;-66
2022/11/02 06:30:24;;;;;;;61.40;29.53;;;;;;;7.48;67.17;100233.70;1700187;83;21530;-65
2022/11/02 06:32:52;;;;;;;53.10;26.37;;;;;;;7.55;66.92;100235.15;1710642;83;21075;-62
2022/11/02 06:35:21;;;;;;;61.50;27.30;;;;;;;7.65;66.76;100229.16;1707050;83;21546;-64
2022/11/02 06:37:49;;;;;;;43.60;26.53;;;;;;;7.74;66.31;100233.91;1700776;82;21144;-64
2022/11/02 06:40:15;;;;;;;58.90;27.07;;;;;;;7.82;66.34;100233.90;1697517;83;21018;-63
2022/11/02 06:42:41;;;;;;;;;;;;;;;7.94;66.04;100232.50;1709368;83;21060;-64
2022/11/02 06:45:10;;;;;;;46.28;27.60;;;;;;;8.04;65.69;100236.77;1711354;83;20383;-62
2022/11/02 06:47:37;;;;;;;;;;;;;;;8.07;64.85;100236.42;1710085;83;21126;-64
2022/11/02 06:50:05;;;;;;;40.73;23.07;;;;;;;8.15;64.86;100243.01;1705556;83;20475;-64
2022/11/02 06:52:32;;;;;;;42.73;25.93;;;;;;;8.18;64.43;100239.50;1705917;83;21549;-63
2022/11/02 06:54:58;;;;;;;38.55;22.75;;;;;;;8.25;63.74;100243.63;1704519;83;21145;-64
2022/11/02 06:57:24;;;;;;;39.70;25.75;;;;;;;8.27;63.29;100238.97;1704910;83;21049;-64
2022/11/02 06:59:50;;;;;;;39.18;25.15;;;;;;;8.30;62.97;100241.76;1706474;83;21126;-65
2022/11/02 07:02:16;;;;;;;42.95;24.25;;;;;;;8.33;62.90;100242.23;1707179;83;21085;-64
2022/11/02 07:04:42;;;;;;;41.58;24.30;;;;;;;7.91;62.29;100173.15;1702472;83;22407;-66
2022/11/02 07:07:09;;;;;;;37.43;24.67;;;;;;;8.40;61.89;100242.38;1705025;81;21097;-64
2022/11/02 07:09:36;;;;;;;35.23;22.67;;;;;;;8.43;60.08;100247.34;1702714;83;21078;-63
2022/11/02 07:12:03;;;;;;;36.83;22.30;;;;;;;8.42;60.67;100246.19;1701736;83;21081;-67
2022/11/02 07:14:30;;;;;;;35.43;23.23;;;;;;;8.43;60.89;100243.87;1703973;82;21053;-63
2022/11/02 07:16:56;;;;;;;39.92;26.73;;;;;;;8.44;60.95;100243.70;1705065;82;21151;-64
2022/11/02 07:19:23;;;;;;;38.40;29.70;;;;;;;8.44;60.91;100249.49;1705683;83;21581;-63
2022/11/02 07:21:49;;;;;;;45.23;26.57;;;;;;;8.42;61.05;100248.84;1710364;83;21046;-65
2022/11/02 07:24:15;;;;;;;41.85;26.15;;;;;;;8.45;61.24;100248.50;1705113;83;21490;-67
2022/11/02 07:26:41;;;;;;;40.12;27.05;;;;;;;8.51;61.29;100246.46;1699345;83;21510;-64
2022/11/02 07:29:07;;;;;;;39.27;24.18;;;;;;;8.53;61.14;100248.44;1704245;83;21049;-64
2022/11/02 07:31:33;;;;;;;38.73;25.48;;;;;;;8.62;60.51;100242.06;1703729;83;21100;-63
2022/11/02 07:34:00;;;;;;;29.57;23.40;;;;;;;8.73;59.53;100234.18;1706166;83;21012;-66
2022/11/02 07:36:26;;;;;;;41.50;25.00;;;;;;;8.85;58.40;100242.55;1706452;83;21654;-64
2022/11/02 07:38:52;;;;;;;34.40;24.90;;;;;;;8.93;57.93;100239.83;1706184;83;21107;-65
2022/11/02 07:41:19;;;;;;;29.82;23.95;;;;;;;9.04;57.69;100235.89;1704298;83;20999;-62
2022/11/02 07:43:45;;;;;;;33.80;24.07;;;;;;;9.18;57.70;100238.27;1702116;83;21057;-63
2022/11/02 07:46:30;;;;;;;37.10;24.93;;;;;;;9.28;57.01;100238.81;1710884;83;21039;-63
2022/11/02 07:48:56;;;;;;;34.80;24.98;;;;;;;9.33;56.21;100228.47;1705158;83;21085;-63
2022/11/02 07:51:23;;;;;;;;;;;;;;;9.40;56.32;100222.74;1705578;83;21085;-63
2022/11/02 07:53:51;;;;;;;40.23;24.23;;;;;;;9.51;55.84;100224.94;1708041;83;20178;-65
2022/11/02 07:58:50;;;;;;;31.97;22.60;;;;;;;9.65;55.55;100223.27;1785576;78;22202;-63
2022/11/02 08:01:16;;;;;;;40.70;23.70;;;;;;;9.71;55.24;100223.03;1699675;81;21476;-63
2022/11/02 08:03:42;;;;;;;31.05;21.97;;;;;;;9.78;54.80;100217.81;1672101;84;21119;-68
2022/11/02 08:06:08;;;;;;;34.25;23.00;;;;;;;9.82;54.35;100220.41;1666752;84;21598;-64
2022/11/02 08:08:35;;;;;;;37.98;24.55;;;;;;;9.82;54.59;100217.23;1682149;81;21080;-65
2022/11/02 08:11:05;;;;;;;29.67;21.07;;;;;;;9.86;54.64;100221.17;1717545;81;21072;-64
2022/11/02 08:13:32;;;;;;;30.33;20.43;;;;;;;9.93;54.39;100216.75;1700890;81;21573;-69
2022/11/02 08:16:00;;;;;;;30.00;21.67;;;;;;;9.93;54.33;100222.08;1690514;82;21041;-63
2022/11/02 08:18:28;;;;;;;27.60;19.63;;;;;;;9.92;54.48;100213.77;1667268;84;21068;-69
2022/11/02 08:20:58;;;;;;;29.50;22.53;;;;;;;9.91;54.78;100216.13;1684160;83;21143;-65
2022/11/02 08:23:27;;;;;;;31.60;20.57;;;;;;;9.85;54.97;100217.36;1703985;82;21084;-70
2022/11/02 08:25:57;;;;;;;31.00;22.40;;;;;;;9.83;55.23;100224.23;1677350;83;21041;-62
2022/11/02 08:28:29;;;;;;;34.63;22.97;;;;;;;9.82;55.40;100221.23;1691051;83;21153;-63
2022/11/02 08:30:58;;;;;;;29.07;21.87;;;;;;;9.86;55.73;100227.02;1678002;83;21120;-62
2022/11/02 08:33:24;;;;;;;33.97;21.67;;;;;;;9.89;55.82;100219.99;1660603;83;21373;-63
2022/11/02 08:35:52;;;;;;;38.50;26.47;;;;;;;9.97;55.81;100217.73;1641820;85;21055;-64
2022/11/02 08:38:22;;;;;;;39.17;24.93;;;;;;;10.02;55.82;100221.96;1682611;83;21045;-62
2022/11/02 08:40:48;;;;;;;36.80;23.57;;;;;;;10.11;55.82;100216.84;1669617;82;20995;-63
2022/11/02 08:43:15;;;;;;;31.05;21.60;;;;;;;10.20;55.93;100217.05;1645804;85;21114;-66
2022/11/02 08:45:44;;;;;;;31.93;20.90;;;;;;;10.31;55.24;100218.43;1643608;85;21672;-62
2022/11/02 08:48:11;;;;;;;28.90;20.73;;;;;;;10.39;54.47;100213.48;1641676;85;21024;-63
2022/11/02 08:50:39;;;;;;;34.03;21.40;;;;;;;10.40;53.88;100211.15;1676262;83;21050;-64
2022/11/02 08:53:05;;;;;;;29.67;20.80;;;;;;;10.35;53.62;100209.03;1672730;83;21049;-64
2022/11/02 08:55:33;;;;;;;29.73;20.30;;;;;;;10.31;54.29;100200.59;1673671;83;22319;-65
2022/11/02 08:58:01;;;;;;;38.67;20.77;;;;;;;10.39;54.31;100202.30;1673949;82;21146;-67
2022/11/02 09:00:32;;;;;;;30.33;21.27;;;;;;;10.50;54.47;100200.98;1681070;83;21879;-64
2022/11/02 09:03:09;;;;;;;30.80;21.33;;;;;;;10.63;54.28;100205.09;1611595;87;21044;-66
2022/11/02 09:05:41;;;;;;;33.13;20.80;;;;;;;10.71;54.03;100200.95;1661177;83;21015;-64
2022/11/02 09:08:15;;;;;;;28.03;19.47;;;;;;;10.81;53.53;100199.80;1665678;84;21563;-65
2022/11/02 09:10:42;;;;;;;28.73;21.43;;;;;;;10.86;53.52;100198.72;1677277;84;21093;-64
2022/11/02 09:13:12;;;;;;;27.13;19.47;;;;;;;10.92;53.33;100192.59;1674284;83;20967;-64
2022/11/02 09:15:39;;;;;;;28.80;19.57;;;;;;;10.96;52.90;100189.85;1675448;84;21053;-65
2022/11/02 09:18:06;;;;;;;28.23;20.10;;;;;;;10.97;52.82;100193.37;1678444;83;21086;-68
2022/11/02 09:20:34;;;;;;;27.10;20.53;;;;;;;11.03;52.89;100194.73;1671713;83;21011;-64
2022/11/02 09:23:00;;;;;;;28.80;19.20;;;;;;;11.12;52.83;100194.59;1657653;84;21052;-67
2022/11/02 09:25:27;;;;;;;30.57;19.93;;;;;;;11.14;52.45;100197.38;1616181;86;21560;-62
2022/11/02 09:27:56;;;;;;;31.73;21.43;;;;;;;11.16;52.33;100190.00;1665107;84;21496;-63
2022/11/02 09:30:25;;;;;;;32.60;20.50;;;;;;;11.18;52.22;100181.80;1669401;84;21067;-65
2022/11/02 09:33:00;;;;;;;33.20;21.57;;;;;;;11.23;52.32;100182.05;1668660;84;21541;-64
2022/11/02 09:35:30;;;;;;;28.50;21.40;;;;;;;11.30;52.06;100185.55;1679213;84;21076;-65
2022/11/02 09:37:56;;;;;;;32.40;19.42;;;;;;;11.38;52.35;100185.41;1673878;82;21077;-65
2022/11/02 09:40:27;;;;;;;30.50;21.17;;;;;;;11.47;51.93;100178.05;1675287;83;21242;-63
2022/11/02 09:43:14;;;;;;;29.92;20.50;;;;;;;11.49;51.47;100175.52;1663909;84;21074;-64
2022/11/02 09:46:00;;;;;;;26.30;20.48;;;;;;;11.49;51.58;100178.18;1671093;84;21062;-65
2022/11/02 09:48:39;;;;;;;32.58;21.10;;;;;;;11.49;51.67;100175.52;1673482;81;21014;-63
2022/11/02 09:51:11;;;;;;;31.43;20.47;;;;;;;11.53;51.73;100181.28;1677789;84;21084;-63
2022/11/02 09:54:16;;;;;;;31.10;21.50;;;;;;;11.56;51.71;100186.20;1681716;84;21068;-70
2022/11/02 09:56:43;;;;;;;32.30;21.13;;;;;;;11.60;51.67;100187.97;1663050;84;21078;-65
2022/11/02 09:59:19;;;;;;;28.73;20.37;;;;;;;11.54;52.11;100179.42;1676103;84;21117;-64
2022/11/02 13:49:41;;;;;;;30.02;21.40;;;;;;;12.27;53.77;100203.73;1765329;78;22236;-63
2022/11/02 13:52:21;;;;;;;30.82;22.35;;;;;;;12.25;53.68;100211.95;1710990;81;21025;-62
2022/11/02 13:54:51;;;;;;;31.70;21.55;;;;;;;12.14;53.99;100211.72;1701682;82;21069;-62
2022/11/02 13:57:45;;;;;;;33.60;22.95;;;;;;;12.04;54.18;100212.93;1703144;83;21316;-61
2022/11/02 14:00:27;;;;;;;30.27;21.15;;;;;;;11.96;54.44;100215.80;1694040;82;21596;-62
2022/11/02 14:03:20;;;;;;;34.73;22.70;;;;;;;11.82;54.73;100208.70;1678554;84;21577;-71
2022/11/02 14:05:51;;;;;;;35.28;24.92;;;;;;;11.71;55.09;100211.43;1647287;84;21002;-67
2022/11/02 14:08:35;;;;;;;34.30;25.00;;;;;;;11.59;55.50;100209.84;1679465;84;21043;-71
2022/11/02 14:11:15;;;;;;;33.90;24.70;;;;;;;11.47;55.90;100208.74;1665713;84;21096;-75
2022/11/02 14:13:57;;;;;;;35.23;23.87;;;;;;;11.36;56.42;100210.14;1680322;83;21004;-72
2022/11/02 14:16:51;;;;;;;36.40;24.30;;;;;;;11.30;56.52;100214.91;1673348;84;21714;-71
2022/11/02 14:19:32;;;;;;;29.33;21.47;;;;;;;11.27;56.62;100216.66;1673948;84;21099;-72
2022/11/02 14:22:08;;;;;;;29.50;23.20;;;;;;;11.26;56.68;100211.83;1649001;85;21713;-72
2022/11/02 14:24:41;;;;;;;29.27;22.77;;;;;;;11.24;56.82;100202.36;1683137;84;21613;-70
2022/11/02 14:27:18;;;;;;;29.50;24.17;;;;;;;11.21;57.10;100206.77;1674602;84;21077;-72
2022/11/02 14:29:49;;;;;;;;;;;;;;;11.17;57.22;100215.67;1691700;84;21260;-71
2022/11/02 14:32:26;;;;;;;31.67;23.10;;;;;;;11.13;57.48;100214.91;1692020;84;20204;-71
2022/11/02 14:35:32;;;;;;;31.30;22.43;;;;;;;11.03;57.69;100216.59;1666221;86;21030;-72
2022/11/02 14:38:19;;;;;;;27.13;21.80;;;;;;;11.00;57.99;100216.48;1667854;86;21057;-74
2022/11/02 14:41:34;;;;;;;35.00;23.00;;;;;;;10.94;58.37;100220.41;1680684;83;21546;-73
2022/11/02 14:44:08;;;;;;;32.70;24.13;;;;;;;10.89;58.42;100219.67;1687797;83;21141;-73
2022/11/02 14:47:08;;;;;;;39.73;24.10;;;;;;;10.85;58.82;100221.89;1609153;87;21078;-72
2022/11/02 14:49:42;;;;;;;33.63;23.30;;;;;;;10.82;58.81;100222.78;1652508;85;21004;-72
2022/11/02 14:52:26;;;;;;;34.80;24.83;;;;;;;10.83;59.10;100224.42;1720049;82;21078;-72
2022/11/02 14:55:10;;;;;;;35.10;25.17;;;;;;;10.85;59.00;100230.38;1725731;83;21026;-72
2022/11/02 14:57:42;;;;;;;34.83;24.37;;;;;;;10.87;59.10;100228.38;1709900;83;21067;-74
2022/11/02 15:00:21;;;;;;;36.10;25.40;;;;;;;10.90;59.27;100230.64;1702009;83;21092;-72
2022/11/02 15:02:49;;;;;;;32.27;23.57;;;;;;;10.90;59.32;100235.45;1702344;84;22204;-72
2022/11/02 15:05:24;;;;;;;37.20;25.77;;;;;;;10.88;59.63;100237.48;1720118;82;21604;-71
2022/11/02 15:08:00;;;;;;;34.10;24.50;;;;;;;10.87;59.59;100243.05;1737831;81;21157;-71
2022/11/02 15:10:34;;;;;;;36.87;26.30;;;;;;;10.88;59.71;100244.67;1727161;81;21038;-72
2022/11/02 15:13:22;;;;;;;40.47;28.40;;;;;;;10.91;59.69;100253.63;1709841;82;21478;-71
2022/11/02 15:15:57;;;;;;;38.43;27.13;;;;;;;10.96;59.76;100253.05;1687794;83;21006;-71
2022/11/02 15:18:32;;;;;;;38.50;28.17;;;;;;;10.98;59.64;100248.34;1688971;83;21109;-72
2022/11/02 15:21:18;;;;;;;46.30;29.63;;;;;;;10.99;59.71;100255.33;1686183;83;21115;-72
2022/11/02 15:24:10;;;;;;;39.97;28.57;;;;;;;10.99;59.84;100259.34;1686636;84;21059;-71
2022/11/02 15:26:59;;;;;;;41.87;27.43;;;;;;;10.99;59.62;100261.48;1690559;83;22071;-72
2022/11/02 15:29:42;;;;;;;37.63;27.70;;;;;;;10.99;59.71;100266.82;1688189;83;21052;-70
2022/11/02 15:32:15;;;;;;;34.27;25.63;;;;;;;10.96;59.73;100265.86;1689229;82;21334;-71
2022/11/02 15:34:46;;;;;;;30.88;24.87;;;;;;;10.94;59.62;100259.08;1728877;81;22198;-72
2022/11/02 15:37:19;;;;;;;36.57;24.50;;;;;;;10.93;59.33;100268.11;1728719;81;21015;-71
2022/11/02 15:39:53;;;;;;;37.93;25.93;;;;;;;10.88;59.14;100266.01;1727127;82;20992;-73
2022/11/02 15:42:39;;;;;;;39.77;25.30;;;;;;;10.86;59.08;100272.05;1728638;82;20990;-70
2022/11/02 15:45:40;;;;;;;33.30;23.27;;;;;;;10.85;59.00;100269.89;1709210;82;21036;-72
2022/11/02 15:48:24;;;;;;;29.20;21.13;;;;;;;10.83;58.82;100275.08;1687063;83;21091;-73